createdAt,value
2023-03-31T00:00:58.253Z,61966.28
2023-03-31T00:06:02.093Z,61981.06
2023-03-31T00:11:08.462Z,61980.13
2023-03-31T00:16:11.659Z,61974.81
2023-03-31T00:21:24.767Z,61951.56
2023-03-31T00:26:29.662Z,61941.59
2023-03-31T00:31:32.424Z,61969.22
2023-03-31T00:36:36.793Z,61961.91
2023-03-31T00:41:41.825Z,61964.88
2023-03-31T00:46:52.287Z,61939.84
2023-03-31T00:51:56.867Z,61942.50
2023-03-31T00:57:03.609Z,61953.13
2023-03-31T01:02:06.766Z,61961.09
2023-03-31T01:07:16.935Z,61985.06
2023-03-31T01:12:23.174Z,61972.69
2023-03-31T01:17:29.942Z,62002.56
2023-03-31T01:22:51.509Z,61989.34
2023-03-31T01:28:15.701Z,62014.50
2023-03-31T01:33:40.260Z,62008.59
2023-03-31T01:39:05.084Z,62027.50
2023-03-31T01:44:18.698Z,62033.28
2023-03-31T01:49:30.158Z,62011.66
2023-03-31T01:54:39.329Z,62039.09
2023-03-31T01:59:52.170Z,62061.78
2023-03-31T02:05:01.610Z,62036.69
2023-03-31T02:10:08.685Z,62015.19
2023-03-31T02:15:18.325Z,62001.50
2023-03-31T02:20:22.994Z,61993.00
2023-03-31T02:25:30.594Z,61995.00
2023-03-31T02:30:44.471Z,61966.88
2023-03-31T02:35:47.035Z,61981.41
2023-03-31T02:40:49.970Z,61970.88
2023-03-31T02:45:53.883Z,61935.56
2023-03-31T02:51:17.578Z,61963.56
2023-03-31T02:56:31.994Z,61962.50
2023-03-31T03:02:01.972Z,61959.38
2023-03-31T03:07:10.009Z,61979.59
2023-03-31T03:12:18.881Z,61972.78
2023-03-31T03:17:27.817Z,61979.63
2023-03-31T03:22:30.469Z,61972.47
2023-03-31T03:27:33.232Z,61975.28
2023-03-31T03:32:37.309Z,62016.47
2023-03-31T03:37:40.379Z,61984.72
2023-03-31T03:42:43.157Z,61985.25
2023-03-31T03:47:47.140Z,61988.97
2023-03-31T03:52:49.782Z,61988.06
2023-03-31T03:57:52.370Z,61994.88
2023-03-31T04:02:56.387Z,62020.41
2023-03-31T04:07:59.955Z,61995.34
2023-03-31T04:13:02.981Z,62001.66
2023-03-31T04:18:07.066Z,61997.53
2023-03-31T04:23:10.321Z,61974.53
2023-03-31T04:28:14.686Z,61993.75
2023-03-31T04:33:19.021Z,61986.44
2023-03-31T04:38:23.615Z,62006.66
2023-03-31T04:43:26.563Z,61984.25
2023-03-31T04:48:30.514Z,61994.06
2023-03-31T04:53:33.675Z,61972.72
2023-03-31T04:58:36.263Z,61966.41
2023-03-31T05:03:41.364Z,61970.94
2023-03-31T05:08:44.872Z,61926.75
2023-03-31T05:13:47.697Z,61997.94
2023-03-31T05:18:51.688Z,61962.63
2023-03-31T05:23:54.746Z,61975.63
2023-03-31T05:28:58.279Z,61979.28
2023-03-31T05:34:02.261Z,62000.06
2023-03-31T05:39:04.958Z,61959.53
2023-03-31T05:44:07.535Z,61960.63
2023-03-31T05:49:11.931Z,62007.41
2023-03-31T05:54:14.874Z,61946.16
2023-03-31T05:59:17.472Z,61995.66
2023-03-31T06:04:21.690Z,61983.66
2023-03-31T06:09:24.380Z,62022.31
2023-03-31T06:14:28.273Z,61982.88
2023-03-31T06:19:32.456Z,61977.72
2023-03-31T06:24:35.042Z,62000.69
2023-03-31T06:29:38.556Z,62040.34
2023-03-31T06:34:42.328Z,62015.97
2023-03-31T06:39:45.639Z,62034.34
2023-03-31T06:44:48.176Z,62047.47
2023-03-31T06:49:52.096Z,62048.84
2023-03-31T06:54:54.664Z,62079.91
2023-03-31T06:59:57.185Z,62089.59
2023-03-31T07:05:01.151Z,62057.28
2023-03-31T07:10:03.871Z,62104.16
2023-03-31T07:15:07.864Z,62092.03
2023-03-31T07:20:15.074Z,62055.53
2023-03-31T07:25:18.834Z,62099.34
2023-03-31T07:30:22.313Z,62150.28
2023-03-31T07:35:27.349Z,62181.69
2023-03-31T07:40:34.114Z,62182.63
2023-03-31T07:45:37.159Z,62207.88
2023-03-31T07:50:41.220Z,62194.94
2023-03-31T07:55:43.767Z,62198.59
2023-03-31T08:00:46.336Z,62194.19
2023-03-31T08:05:52.508Z,62209.78
2023-03-31T08:10:55.244Z,62160.47
2023-03-31T08:15:58.908Z,62198.41
2023-03-31T08:21:02.893Z,62171.06
2023-03-31T08:26:16.452Z,62174.19
2023-03-31T08:31:25.991Z,62158.38
2023-03-31T08:36:31.235Z,62138.16
2023-03-31T08:41:42.779Z,62148.41
2023-03-31T08:46:45.669Z,62081.78
2023-03-31T08:51:53.114Z,62107.16
2023-03-31T08:56:55.842Z,62091.50
2023-03-31T09:02:06.017Z,62090.53
2023-03-31T09:07:17.342Z,62112.91
2023-03-31T09:12:24.380Z,62139.78
2023-03-31T09:17:30.374Z,62134.56
2023-03-31T09:22:42.457Z,62106.41
2023-03-31T09:27:47.673Z,62104.03
2023-03-31T09:32:55.919Z,62085.09
2023-03-31T09:38:00.628Z,62115.88
2023-03-31T09:43:06.287Z,62082.97
2023-03-31T09:48:15.299Z,62089.84
2023-03-31T09:53:23.019Z,62105.44
2023-03-31T09:58:26.203Z,62166.13
2023-03-31T10:03:29.549Z,62174.28
2023-03-31T10:08:34.946Z,62308.72
2023-03-31T10:13:44.869Z,62392.28
2023-03-31T10:18:47.518Z,62476.25
2023-03-31T10:23:52.196Z,62496.13
2023-03-31T10:28:55.861Z,62481.66
2023-03-31T10:33:59.791Z,62421.38
2023-03-31T10:39:08.301Z,62378.63
2023-03-31T10:44:34.035Z,62444.88
2023-03-31T10:49:40.789Z,62455.69
2023-03-31T10:54:49.965Z,62450.22
2023-03-31T11:00:05.717Z,62391.00
2023-03-31T11:05:16.452Z,62339.88
2023-03-31T11:10:38.277Z,62381.06
2023-03-31T11:15:48.151Z,62396.66
2023-03-31T11:20:59.060Z,62355.91
2023-03-31T11:26:07.093Z,62401.38
2023-03-31T11:31:28.618Z,62532.72
2023-03-31T11:36:44.529Z,62680.53
2023-03-31T11:41:52.232Z,62543.22
2023-03-31T11:47:00.016Z,62591.06
2023-03-31T11:52:07.366Z,62518.56
2023-03-31T11:57:21.385Z,62604.66
2023-03-31T12:02:32.501Z,62648.50
2023-03-31T12:07:40.828Z,62610.69
2023-03-31T12:12:48.394Z,62610.31
2023-03-31T12:18:00.638Z,62482.97
2023-03-31T12:23:07.376Z,62482.94
2023-03-31T12:34:43.321Z,62539.75
2023-03-31T12:39:56.839Z,62526.59
2023-03-31T12:45:05.952Z,62520.97
2023-03-31T12:50:30.611Z,62480.91
2023-03-31T12:55:38.741Z,62447.88
2023-03-31T13:01:05.331Z,62523.13
2023-03-31T13:06:12.860Z,62516.50
2023-03-31T13:11:15.519Z,62554.03
2023-03-31T13:16:21.391Z,62499.81
2023-03-31T13:21:25.912Z,62471.06
2023-03-31T13:26:47.135Z,62467.56
2023-03-31T13:32:19.133Z,62421.19
2023-03-31T13:37:38.507Z,62475.72
2023-03-31T13:43:10.032Z,62520.75
2023-03-31T13:48:27.320Z,62497.19
2023-03-31T13:53:48.327Z,62476.22
2023-03-31T13:59:30.383Z,62469.66
2023-03-31T14:04:58.450Z,62426.38
2023-03-31T14:10:04.401Z,62473.34
2023-03-31T14:15:08.457Z,62466.00
2023-03-31T14:20:29.805Z,62477.72
2023-03-31T14:25:45.464Z,62522.91
2023-03-31T14:30:54.497Z,62422.78
2023-03-31T14:36:02.640Z,62372.69
2023-03-31T14:41:06.744Z,62381.72
2023-03-31T14:46:10.789Z,62363.09
2023-03-31T14:51:15.826Z,62322.31
2023-03-31T14:56:26.388Z,62312.78
2023-03-31T15:01:35.684Z,62253.91
2023-03-31T15:06:39.977Z,62206.59
2023-03-31T15:11:43.985Z,62231.19
2023-03-31T15:16:47.013Z,62281.50
2023-03-31T15:21:56.610Z,62307.47
2023-03-31T15:27:04.966Z,62323.13
2023-03-31T15:32:13.573Z,62336.94
2023-03-31T15:37:16.392Z,62325.69
2023-03-31T15:42:20.530Z,62337.16
2023-03-31T15:47:25.440Z,62356.34
2023-03-31T15:52:33.190Z,62253.16
2023-03-31T15:57:37.349Z,62241.44
2023-03-31T16:02:43.488Z,62166.16
2023-03-31T16:07:47.117Z,62168.19
2023-03-31T16:12:55.353Z,62184.59
2023-03-31T16:18:00.775Z,62227.25
2023-03-31T16:23:12.030Z,62222.25
2023-03-31T16:28:19.495Z,62219.22
2023-03-31T16:33:24.639Z,62203.38
2023-03-31T16:38:30.445Z,62195.88
2023-03-31T16:43:35.093Z,62173.13
2023-03-31T16:48:37.752Z,62158.31
2023-03-31T16:53:40.346Z,62175.81
2023-03-31T16:58:50.666Z,62157.44
2023-03-31T17:03:53.389Z,62210.47
2023-03-31T17:08:56.145Z,62133.13
2023-03-31T17:14:00.226Z,62149.25
2023-03-31T17:19:02.836Z,62130.34
2023-03-31T17:24:09.524Z,62165.59
2023-03-31T17:29:15.384Z,62129.97
2023-03-31T17:34:18.963Z,62100.16
2023-03-31T17:39:21.585Z,62132.13
2023-03-31T17:44:25.657Z,62096.00
2023-03-31T17:49:28.723Z,62120.41
2023-03-31T17:54:32.385Z,62067.63
2023-03-31T17:59:38.455Z,62090.31
2023-03-31T18:04:41.867Z,62069.25
2023-03-31T18:09:44.498Z,62062.22
2023-03-31T18:14:49.543Z,62059.31
2023-03-31T18:19:52.138Z,62034.13
2023-03-31T18:25:03.955Z,62033.13
2023-03-31T18:30:09.516Z,62053.34
2023-03-31T18:35:12.248Z,62040.41
2023-03-31T18:40:15.465Z,62032.97
2023-03-31T18:45:20.582Z,62000.13
2023-03-31T18:50:23.858Z,62025.53
2023-03-31T18:55:29.230Z,62029.09
2023-03-31T19:00:37.117Z,62033.19
2023-03-31T19:05:39.957Z,62039.91
2023-03-31T19:10:42.695Z,61983.19
2023-03-31T19:15:46.993Z,62002.34
2023-03-31T19:20:51.938Z,61999.78
2023-03-31T19:25:55.270Z,61998.19
2023-03-31T19:30:59.477Z,62007.59
2023-03-31T19:36:02.125Z,61990.41
2023-03-31T19:41:06.018Z,61968.53
2023-03-31T19:46:10.063Z,62002.88
2023-03-31T19:51:12.827Z,62000.25
2023-03-31T19:56:17.309Z,61992.94
2023-03-31T20:01:23.729Z,62001.28
2023-03-31T20:06:28.558Z,61984.63
2023-03-31T20:11:32.072Z,61988.75
2023-03-31T20:16:38.411Z,62029.28
2023-03-31T20:21:42.711Z,61973.69
2023-03-31T20:26:45.637Z,61995.00
2023-03-31T20:31:50.399Z,62016.88
2023-03-31T20:36:53.082Z,62006.47
2023-03-31T20:41:55.757Z,62027.75
2023-03-31T20:47:00.517Z,62010.56
2023-03-31T20:52:04.454Z,61978.88
2023-03-31T20:57:07.292Z,62010.59
2023-03-31T21:02:14.194Z,61974.22
2023-03-31T21:07:16.826Z,62003.88
2023-03-31T21:12:20.290Z,61991.81
2023-03-31T21:17:24.204Z,61979.81
2023-03-31T21:22:27.410Z,61998.47
2023-03-31T21:27:30.020Z,61991.81
2023-03-31T21:32:36.023Z,61995.94
2023-03-31T21:37:38.627Z,61977.75
2023-03-31T21:42:41.495Z,61968.81
2023-03-31T21:47:46.427Z,62003.69
2023-03-31T21:52:49.042Z,61963.56
2023-03-31T21:57:52.972Z,62010.34
2023-03-31T22:03:16.009Z,61986.50
2023-03-31T22:08:19.498Z,61999.44
2023-03-31T22:13:23.151Z,61996.25
2023-03-31T22:18:27.125Z,61999.38
2023-03-31T22:23:29.695Z,61991.03
2023-03-31T22:28:32.214Z,62000.84
2023-03-31T22:33:36.141Z,61986.31
2023-03-31T22:38:38.882Z,62004.56
2023-03-31T22:43:43.813Z,61975.97
2023-03-31T22:48:50.895Z,62000.44
2023-03-31T22:53:54.836Z,62010.78
2023-03-31T22:58:57.960Z,61995.72
2023-03-31T23:04:01.958Z,62014.91
2023-03-31T23:09:04.678Z,61980.13
2023-03-31T23:14:07.273Z,61979.06
2023-03-31T23:19:11.996Z,61994.66
2023-03-31T23:24:14.603Z,61988.91
2023-03-31T23:29:17.209Z,62007.16
2023-03-31T23:34:21.249Z,62000.97
2023-03-31T23:39:23.866Z,61999.84
2023-03-31T23:44:27.077Z,62005.47
2023-03-31T23:49:32.507Z,62017.91
2023-03-31T23:54:35.147Z,61989.22
2023-03-31T23:59:37.979Z,61993.94
